Time;durP1;ratioP1;P1;durP2;ratioP2;P2;SDS_P1;SDS_P2;PMS_P1;PMS_P2;Temp;Humidity;BMP_temperature;BMP_pressure;BME280_temperature;BME280_humidity;BME280_pressure;Samples;Min_cycle;Max_cycle;Signal;HPM_P1;HPM_P2
2024/01/14 00:00:12;;;;;;;96.18;51.03;;;;;;;0.74;100.00;101633.66;5090269;28;20112;-39
2024/01/14 00:02:40;;;;;;;94.65;48.95;;;;;;;0.82;100.00;101638.22;5089943;28;20028;-38
2024/01/14 00:05:07;;;;;;;95.38;50.75;;;;;;;0.78;100.00;101637.66;5089573;28;20032;-38
2024/01/14 00:07:32;;;;;;;92.88;49.08;;;;;;;0.84;100.00;101645.09;5079884;28;20166;-38
2024/01/14 00:09:58;;;;;;;86.70;47.30;;;;;;;0.85;100.00;101640.59;5075732;28;20024;-38
2024/01/14 00:12:25;;;;;;;;;;;;;;;0.89;100.00;101647.31;5076992;28;20111;-39
2024/01/14 00:14:50;;;;;;;91.43;47.45;;;;;;;0.83;100.00;101648.75;5075582;28;20361;-39
2024/01/14 00:17:15;;;;;;;102.77;51.20;;;;;;;0.82;100.00;101635.56;5076230;28;20035;-38
2024/01/14 00:19:41;;;;;;;85.13;46.30;;;;;;;0.75;100.00;101622.00;5076025;28;20035;-39
2024/01/14 00:22:06;;;;;;;90.50;48.43;;;;;;;0.75;100.00;101625.50;5076369;28;20020;-39
2024/01/14 00:24:31;;;;;;;87.60;46.30;;;;;;;0.76;100.00;101624.50;5076062;28;20346;-39
2024/01/14 00:26:57;;;;;;;98.80;50.07;;;;;;;0.72;100.00;101617.81;5075736;28;20024;-38
2024/01/14 00:29:22;;;;;;;98.53;50.47;;;;;;;0.75;100.00;101614.84;5075464;28;20025;-38
2024/01/14 00:31:47;;;;;;;90.93;46.23;;;;;;;0.76;100.00;101613.88;5076244;28;20082;-38
2024/01/14 00:34:13;;;;;;;96.23;48.43;;;;;;;0.73;100.00;101600.88;5076166;28;20031;-38
2024/01/14 00:36:41;;;;;;;95.80;50.10;;;;;;;0.75;100.00;101603.38;5075092;28;20107;-38
2024/01/14 00:39:07;;;;;;;93.50;48.72;;;;;;;0.76;100.00;101610.38;5075428;28;20098;-38
2024/01/14 00:41:33;;;;;;;97.80;49.58;;;;;;;0.68;100.00;101599.59;5075507;28;20036;-39
2024/01/14 00:44:00;;;;;;;92.63;48.22;;;;;;;0.74;100.00;101605.19;5075162;28;20074;-39
2024/01/14 00:46:26;;;;;;;99.32;49.20;;;;;;;0.75;100.00;101600.72;5075640;28;20028;-38
2024/01/14 00:48:51;;;;;;;91.47;46.53;;;;;;;0.77;100.00;101599.56;5075271;28;20046;-38
2024/01/14 00:51:16;;;;;;;83.47;44.67;;;;;;;0.79;100.00;101609.25;5076036;28;20108;-38
2024/01/14 00:53:42;;;;;;;91.57;46.23;;;;;;;0.80;100.00;101605.59;5075250;28;20028;-38
2024/01/14 00:56:07;;;;;;;89.77;46.10;;;;;;;0.72;100.00;101588.53;5075604;28;20072;-38
2024/01/14 00:58:32;;;;;;;91.43;48.87;;;;;;;0.78;100.00;101592.41;5075188;28;20041;-38
2024/01/14 01:00:58;;;;;;;84.47;45.20;;;;;;;0.68;100.00;101581.84;5075611;28;20021;-38
2024/01/14 01:03:23;;;;;;;92.10;46.03;;;;;;;0.80;100.00;101595.78;5074991;28;20461;-38
2024/01/14 01:05:48;;;;;;;91.90;45.83;;;;;;;0.83;100.00;101591.97;5075610;28;20067;-39
2024/01/14 01:08:14;;;;;;;97.80;47.27;;;;;;;0.75;100.00;101572.25;5074710;28;20448;-38
2024/01/14 01:10:39;;;;;;;84.72;45.13;;;;;;;0.84;100.00;101586.50;5075139;28;20365;-38
2024/01/14 01:13:05;;;;;;;95.93;46.00;;;;;;;0.84;100.00;101581.19;5075108;28;20032;-38
2024/01/14 01:15:30;;;;;;;98.83;48.93;;;;;;;0.83;100.00;101584.84;5074994;28;20035;-38
2024/01/14 01:17:55;;;;;;;87.97;45.93;;;;;;;0.86;100.00;101589.00;5074347;28;20067;-38
2024/01/14 01:20:21;;;;;;;85.03;46.83;;;;;;;0.83;100.00;101584.84;5074266;28;20024;-38
2024/01/14 01:22:46;;;;;;;82.57;44.83;;;;;;;0.86;100.00;101589.00;5074749;28;20024;-38
2024/01/14 01:25:11;;;;;;;89.27;45.63;;;;;;;0.85;100.00;101584.69;5074892;28;20066;-38
2024/01/14 01:27:37;;;;;;;91.43;44.40;;;;;;;0.85;100.00;101572.19;5075381;28;20024;-38
2024/01/14 01:30:03;;;;;;;85.87;43.57;;;;;;;0.85;100.00;101576.69;5074493;28;20159;-38
2024/01/14 01:32:28;;;;;;;;;;;;;;;0.86;100.00;101573.03;5074884;28;20021;-38
2024/01/14 01:34:54;;;;;;;71.70;39.25;;;;;;;0.83;100.00;101563.53;5074289;28;19919;-38
2024/01/14 01:37:19;;;;;;;85.73;44.67;;;;;;;0.83;100.00;101565.34;5074861;28;20449;-39
2024/01/14 01:39:45;;;;;;;81.00;43.70;;;;;;;0.84;100.00;101564.38;5074291;28;20124;-39
2024/01/14 01:42:10;;;;;;;86.10;44.17;;;;;;;0.82;100.00;101550.34;5074532;28;20377;-39
2024/01/14 01:44:35;;;;;;;88.37;41.97;;;;;;;0.81;100.00;101546.03;5074707;28;20115;-38
2024/01/14 01:47:01;;;;;;;84.80;41.90;;;;;;;0.83;100.00;101546.69;5073477;28;20390;-39
2024/01/14 01:49:27;;;;;;;79.72;43.40;;;;;;;0.67;100.00;101518.09;5074292;28;20419;-38
2024/01/14 01:51:54;;;;;;;77.72;42.00;;;;;;;0.79;100.00;101540.84;5074010;28;20079;-39
2024/01/14 01:54:26;;;;;;;73.82;41.00;;;;;;;0.81;100.00;101546.84;5073979;28;20373;-39
2024/01/14 01:56:53;;;;;;;76.30;40.30;;;;;;;0.81;100.00;101554.00;5074663;28;20369;-38
2024/01/14 01:59:19;;;;;;;74.63;39.17;;;;;;;0.74;100.00;101541.31;5074616;28;20032;-38
2024/01/14 02:01:46;;;;;;;75.45;41.38;;;;;;;0.79;100.00;101538.19;5074171;28;20471;-38
2024/01/14 02:04:13;;;;;;;71.90;38.67;;;;;;;0.84;100.00;101543.91;5073804;28;20040;-38
2024/01/14 02:06:40;;;;;;;74.22;39.85;;;;;;;0.83;100.00;101538.72;5074583;28;20544;-39
2024/01/14 02:09:07;;;;;;;73.88;40.67;;;;;;;0.82;100.00;101537.03;5073765;28;20032;-38
2024/01/14 02:11:33;;;;;;;78.93;41.17;;;;;;;0.67;100.00;101516.25;5074433;28;20047;-39
2024/01/14 02:13:58;;;;;;;;;;;;;;;0.82;100.00;101540.53;5073870;28;20170;-38
2024/01/14 02:16:24;;;;;;;76.88;40.40;;;;;;;0.83;100.00;101538.72;5073913;28;20014;-38
2024/01/14 02:18:49;;;;;;;84.47;46.20;;;;;;;0.74;100.00;101517.34;5073614;28;20032;-38
2024/01/14 02:21:19;;;;;;;75.87;40.70;;;;;;;0.76;100.00;101531.34;5073366;28;20583;-38
2024/01/14 02:23:49;;;;;;;67.82;38.63;;;;;;;0.75;100.00;101524.34;5074235;28;20029;-38
2024/01/14 02:26:14;;;;;;;78.80;41.25;;;;;;;0.84;100.00;101529.75;5074249;28;20039;-38
2024/01/14 02:28:41;;;;;;;82.72;42.67;;;;;;;0.80;100.00;101521.22;5073635;28;20032;-38
2024/01/14 02:31:07;;;;;;;83.65;44.78;;;;;;;0.81;100.00;101527.38;5073410;28;20457;-38
2024/01/14 02:33:32;;;;;;;78.30;41.20;;;;;;;0.79;100.00;101524.06;5073450;28;20039;-39
2024/01/14 02:35:58;;;;;;;75.67;42.90;;;;;;;0.73;100.00;101507.69;5073856;28;20449;-38
2024/01/14 02:38:23;;;;;;;82.30;43.70;;;;;;;0.80;100.00;101518.56;5073587;28;20460;-38
2024/01/14 02:40:49;;;;;;;83.30;44.10;;;;;;;0.81;100.00;101512.25;5073649;28;20028;-38
2024/01/14 02:43:14;;;;;;;82.73;43.43;;;;;;;0.70;100.00;101494.66;5073038;28;20477;-38
2024/01/14 02:45:40;;;;;;;95.78;49.28;;;;;;;0.77;100.00;101497.56;5074108;28;20259;-39
2024/01/14 02:48:06;;;;;;;85.20;45.30;;;;;;;0.80;100.00;101493.75;5073279;28;20021;-38
2024/01/14 02:50:31;;;;;;;85.18;45.38;;;;;;;0.80;100.00;101494.59;5073545;28;20024;-38
2024/01/14 02:52:56;;;;;;;85.40;45.93;;;;;;;0.78;100.00;101496.56;5074112;28;20036;-38
2024/01/14 02:55:22;;;;;;;88.57;46.53;;;;;;;0.81;100.00;101492.78;5073325;28;20044;-38
2024/01/14 02:57:48;;;;;;;84.60;43.83;;;;;;;0.80;100.00;101488.44;5071692;28;20075;-38
2024/01/14 03:00:13;;;;;;;88.50;46.08;;;;;;;0.80;100.00;101488.44;5073892;28;20155;-38
2024/01/14 03:02:39;;;;;;;94.68;45.47;;;;;;;0.71;100.00;101469.72;5073166;28;20532;-38
2024/01/14 03:05:05;;;;;;;84.33;45.47;;;;;;;0.77;100.00;101487.75;5073127;28;20027;-39
2024/01/14 03:07:30;;;;;;;88.32;45.47;;;;;;;0.69;100.00;101471.72;5072865;28;20028;-38
2024/01/14 03:09:55;;;;;;;81.43;44.23;;;;;;;0.78;100.00;101469.94;5073584;28;20028;-39
2024/01/14 03:12:21;;;;;;;79.73;43.47;;;;;;;0.77;100.00;101477.09;5073152;28;20074;-39
2024/01/14 03:14:46;;;;;;;75.77;41.40;;;;;;;0.70;100.00;101451.25;5072918;28;20033;-38
2024/01/14 03:17:11;;;;;;;83.07;43.43;;;;;;;0.76;100.00;101463.94;5072270;28;20032;-38
2024/01/14 03:19:37;;;;;;;72.90;39.57;;;;;;;0.74;100.00;101464.09;5072661;28;20032;-39
2024/01/14 03:22:02;;;;;;;80.07;41.07;;;;;;;0.74;100.00;101473.91;5072996;28;20108;-39
2024/01/14 03:24:27;;;;;;;73.00;40.80;;;;;;;0.71;100.00;101469.72;5073138;28;20025;-38
2024/01/14 03:26:53;;;;;;;74.47;41.00;;;;;;;0.70;100.00;101461.88;5073080;28;20366;-39
2024/01/14 03:29:18;;;;;;;71.13;40.75;;;;;;;0.69;100.00;101462.88;5072797;28;20269;-39
2024/01/14 03:31:44;;;;;;;71.27;39.83;;;;;;;0.70;100.00;101468.03;5073230;28;20078;-38
2024/01/14 03:34:09;;;;;;;77.13;42.50;;;;;;;0.70;100.00;101464.56;5073165;28;20077;-38
2024/01/14 03:36:34;;;;;;;70.17;40.40;;;;;;;0.70;100.00;101467.22;5072417;28;20111;-38
2024/01/14 03:39:00;;;;;;;69.90;39.37;;;;;;;0.70;100.00;101454.75;5072830;28;20071;-39
2024/01/14 03:41:25;;;;;;;73.40;40.47;;;;;;;0.71;100.00;101459.06;5073253;28;20028;-39
2024/01/14 03:43:51;;;;;;;73.65;41.83;;;;;;;0.70;100.00;101451.25;5076198;28;20044;-38
2024/01/14 03:46:16;;;;;;;68.95;39.35;;;;;;;0.64;100.00;101439.38;5076174;28;20028;-38
2024/01/14 03:48:42;;;;;;;72.23;42.03;;;;;;;0.67;100.00;101433.72;5076125;28;20153;-38
2024/01/14 03:51:08;;;;;;;66.72;37.95;;;;;;;0.69;100.00;101438.94;5076721;28;20021;-38
2024/01/14 03:53:33;;;;;;;65.17;38.27;;;;;;;0.66;100.00;101433.91;5077213;28;20474;-38
2024/01/14 03:55:59;;;;;;;69.63;39.53;;;;;;;0.66;100.00;101434.72;5076753;28;20049;-38
2024/01/14 03:58:24;;;;;;;63.03;37.85;;;;;;;0.66;100.00;101428.56;5076211;28;20170;-38
2024/01/14 04:00:49;;;;;;;59.73;36.53;;;;;;;0.68;100.00;101431.91;5076526;28;20028;-38
2024/01/14 04:03:15;;;;;;;63.33;38.27;;;;;;;0.66;100.00;101432.06;5076100;28;20020;-38
2024/01/14 04:05:40;;;;;;;61.13;36.77;;;;;;;0.67;100.00;101433.72;5076189;28;20102;-39
2024/01/14 04:08:06;;;;;;;60.20;36.70;;;;;;;0.66;100.00;101431.22;5076072;28;20377;-39
2024/01/14 04:10:31;;;;;;;;;;;;;;;0.71;100.00;101428.94;5077032;28;20075;-39
2024/01/14 04:12:57;;;;;;;64.73;35.40;;;;;;;0.65;100.00;101422.41;5076097;28;20368;-38
2024/01/14 04:15:22;;;;;;;62.47;37.30;;;;;;;0.59;100.00;101415.03;5075792;28;20295;-38
2024/01/14 04:17:48;;;;;;;66.40;38.25;;;;;;;0.57;100.00;101408.19;5076126;28;20369;-38
2024/01/14 04:20:13;;;;;;;61.17;37.13;;;;;;;0.61;100.00;101418.38;5075867;28;20063;-38
2024/01/14 04:22:39;;;;;;;61.50;37.30;;;;;;;0.60;100.00;101418.53;5076084;28;20036;-38
2024/01/14 04:25:04;;;;;;;63.67;37.00;;;;;;;0.51;100.00;101394.50;5076021;28;20365;-38
2024/01/14 04:27:30;;;;;;;63.72;35.20;;;;;;;0.58;100.00;101413.34;5075972;28;20035;-38
2024/01/14 04:29:55;;;;;;;60.83;35.90;;;;;;;0.59;100.00;101414.22;5076125;28;20036;-38
2024/01/14 04:32:20;;;;;;;63.50;35.97;;;;;;;0.59;100.00;101423.03;5076076;28;20419;-38
2024/01/14 04:34:45;;;;;;;59.60;35.53;;;;;;;0.57;100.00;101411.69;5075251;28;20469;-38
2024/01/14 04:37:11;;;;;;;59.40;36.00;;;;;;;0.57;100.00;101414.34;5075606;28;20026;-38
2024/01/14 04:39:36;;;;;;;54.07;33.43;;;;;;;0.57;100.00;101406.34;5075555;28;20103;-38
2024/01/14 04:42:02;;;;;;;56.27;33.07;;;;;;;0.58;100.00;101405.38;5075328;28;20106;-39
2024/01/14 04:44:27;;;;;;;49.63;30.70;;;;;;;0.49;100.00;101390.34;5075121;28;20090;-38
2024/01/14 04:46:54;;;;;;;56.57;32.50;;;;;;;0.44;100.00;101377.47;5075742;28;20350;-39
2024/01/14 04:49:19;;;;;;;52.20;32.17;;;;;;;0.55;100.00;101397.69;5075351;28;20063;-39
2024/01/14 04:51:44;;;;;;;55.10;33.10;;;;;;;0.56;100.00;101402.03;5075924;28;20040;-39
2024/01/14 04:54:11;;;;;;;51.53;31.13;;;;;;;0.55;100.00;101402.19;5075115;28;20025;-39
2024/01/14 04:56:36;;;;;;;49.53;30.70;;;;;;;0.54;100.00;101393.38;5075627;28;20048;-39
2024/01/14 04:59:02;;;;;;;45.75;28.63;;;;;;;0.52;100.00;101382.84;5075345;28;20028;-39
2024/01/14 05:01:27;;;;;;;43.93;27.77;;;;;;;0.47;100.00;101386.97;5075675;28;20453;-38
2024/01/14 05:03:52;;;;;;;45.40;28.13;;;;;;;0.53;100.00;101391.69;5075315;28;20425;-38
2024/01/14 05:06:18;;;;;;;39.73;26.47;;;;;;;0.44;100.00;101371.28;5074843;28;20416;-38
2024/01/14 05:08:43;;;;;;;39.67;25.95;;;;;;;0.50;100.00;101376.88;5075200;28;20103;-38
2024/01/14 05:11:09;;;;;;;37.87;24.17;;;;;;;0.50;100.00;101370.72;5075738;28;20020;-38
2024/01/14 05:13:35;;;;;;;38.08;23.98;;;;;;;0.47;100.00;101371.00;5074888;28;20024;-38
2024/01/14 05:16:00;;;;;;;34.70;23.63;;;;;;;0.39;100.00;101362.94;5074771;28;20425;-38
2024/01/14 05:18:26;;;;;;;37.67;23.73;;;;;;;0.46;100.00;101374.66;5074519;28;20028;-39
2024/01/14 05:20:52;;;;;;;31.60;22.03;;;;;;;0.45;100.00;101373.00;5074789;28;20162;-39
2024/01/14 05:23:18;;;;;;;35.38;22.90;;;;;;;0.35;100.00;101357.09;5074616;28;20029;-38
2024/01/14 05:25:43;;;;;;;36.50;24.42;;;;;;;0.42;100.00;101367.97;5075171;28;20035;-38
2024/01/14 05:28:08;;;;;;;36.77;24.47;;;;;;;0.40;100.00;101361.97;5074622;28;20032;-38
2024/01/14 05:30:34;;;;;;;36.77;24.37;;;;;;;0.38;100.00;101362.09;5074220;28;20487;-38
2024/01/14 05:32:59;;;;;;;35.53;23.27;;;;;;;0.37;100.00;101364.94;5075035;28;20056;-38
2024/01/14 05:35:24;;;;;;;38.93;25.37;;;;;;;0.38;100.00;101350.63;5090025;28;20396;-39
2024/01/14 05:37:50;;;;;;;36.87;24.83;;;;;;;0.36;100.00;101355.28;5073742;28;20064;-38
2024/01/14 05:40:15;;;;;;;40.97;27.03;;;;;;;0.36;100.00;101355.28;5074379;28;20056;-38
2024/01/14 05:42:42;;;;;;;37.22;24.45;;;;;;;0.32;100.00;101346.75;5074826;28;20277;-38
2024/01/14 05:45:10;;;;;;;37.65;24.75;;;;;;;0.36;100.00;101347.28;5073953;28;20036;-38
2024/01/14 05:47:35;;;;;;;40.38;25.20;;;;;;;0.33;100.00;101347.59;5074698;28;20449;-38
2024/01/14 05:50:01;;;;;;;40.72;25.73;;;;;;;0.35;100.00;101345.63;5074451;28;20116;-38
2024/01/14 05:52:26;;;;;;;38.50;24.63;;;;;;;0.37;100.00;101341.81;5074361;28;20107;-38
2024/01/14 05:54:51;;;;;;;35.47;23.93;;;;;;;0.31;100.00;101326.47;5074090;28;20052;-38
2024/01/14 05:57:17;;;;;;;41.37;24.80;;;;;;;0.37;100.00;101333.00;5074287;28;20421;-38
2024/01/14 05:59:42;;;;;;;37.10;24.73;;;;;;;0.36;100.00;101326.84;5073632;28;20075;-38
2024/01/14 06:02:09;;;;;;;41.55;25.38;;;;;;;0.35;100.00;101333.16;5073957;28;20025;-38
2024/01/14 06:04:34;;;;;;;39.08;25.65;;;;;;;0.27;100.00;101313.63;5073344;28;20071;-38
2024/01/14 06:07:00;;;;;;;43.50;26.43;;;;;;;0.34;100.00;101322.66;5074421;28;20063;-38
2024/01/14 06:09:25;;;;;;;40.67;25.67;;;;;;;0.36;100.00;101321.53;5073714;28;20674;-38
2024/01/14 06:11:51;;;;;;;43.42;26.27;;;;;;;0.19;100.00;101293.91;5073992;28;20082;-38
2024/01/14 06:14:16;;;;;;;43.07;25.87;;;;;;;0.29;100.00;101304.47;5073677;28;20074;-38
2024/01/14 06:16:41;;;;;;;41.87;26.73;;;;;;;0.34;100.00;101310.22;5073613;28;20024;-38
2024/01/14 06:19:07;;;;;;;43.50;27.33;;;;;;;0.34;100.00;101312.88;5073955;28;20028;-38
2024/01/14 06:21:32;;;;;;;47.83;29.27;;;;;;;0.32;100.00;101308.69;5073631;28;20425;-38
2024/01/14 06:23:58;;;;;;;39.95;26.23;;;;;;;0.23;100.00;101295.28;5073550;28;20039;-38
2024/01/14 06:26:23;;;;;;;44.17;27.83;;;;;;;0.17;100.00;101281.78;5073504;28;20362;-38
2024/01/14 06:28:48;;;;;;;43.23;27.80;;;;;;;0.21;100.00;101288.47;5073785;28;20055;-38
2024/01/14 06:31:14;;;;;;;44.97;27.17;;;;;;;0.30;100.00;101298.19;5073820;28;20395;-38
2024/01/14 06:33:40;;;;;;;42.72;26.55;;;;;;;0.30;100.00;101303.53;5073469;28;20070;-38
2024/01/14 06:36:06;;;;;;;41.38;26.73;;;;;;;0.31;100.00;101307.00;5073617;28;20027;-38
2024/01/14 06:38:32;;;;;;;40.83;25.80;;;;;;;0.31;100.00;101302.53;5073836;28;20039;-38
2024/01/14 06:40:58;;;;;;;41.38;25.88;;;;;;;0.17;100.00;101266.66;5073996;28;20024;-38
2024/01/14 06:43:23;;;;;;;44.13;26.53;;;;;;;0.22;100.00;101269.69;5073365;28;20453;-38
2024/01/14 06:45:49;;;;;;;42.37;27.37;;;;;;;0.25;100.00;101277.38;5073657;28;20028;-38
2024/01/14 06:48:14;;;;;;;38.65;25.38;;;;;;;0.33;100.00;101289.06;5073328;28;20127;-38
2024/01/14 06:50:40;;;;;;;;;;;;;;;0.36;100.00;101286.09;5073687;28;20101;-38
2024/01/14 06:53:06;;;;;;;41.10;25.55;;;;;;;0.33;100.00;101268.59;5073219;28;20003;-38
2024/01/14 06:55:31;;;;;;;40.63;24.77;;;;;;;0.33;100.00;101263.28;5073182;28;20059;-38
2024/01/14 06:57:57;;;;;;;44.43;27.40;;;;;;;0.32;100.00;101274.94;5073590;28;20047;-38
2024/01/14 07:00:22;;;;;;;41.50;26.67;;;;;;;0.27;100.00;101257.75;5073483;28;20047;-38
2024/01/14 07:02:47;;;;;;;42.23;25.70;;;;;;;0.34;100.00;101269.44;5073186;28;20027;-38
2024/01/14 07:05:13;;;;;;;39.60;25.17;;;;;;;0.35;100.00;101265.81;5072666;28;20036;-38
2024/01/14 07:07:39;;;;;;;42.75;26.70;;;;;;;0.33;100.00;101262.47;5073519;28;20025;-39
2024/01/14 07:10:04;;;;;;;38.80;25.37;;;;;;;0.35;100.00;101261.31;5073291;28;20367;-38
2024/01/14 07:12:30;;;;;;;44.10;26.77;;;;;;;0.32;100.00;101263.44;5072889;28;20036;-38
2024/01/14 07:14:56;;;;;;;43.83;27.23;;;;;;;0.32;100.00;101250.16;5072319;28;20056;-39
2024/01/14 07:17:21;;;;;;;43.90;27.10;;;;;;;0.32;100.00;101253.66;5074703;28;20100;-39
2024/01/14 07:19:47;;;;;;;41.27;27.63;;;;;;;0.22;100.00;101243.09;5076679;28;20039;-39
2024/01/14 07:22:13;;;;;;;41.92;26.30;;;;;;;0.29;100.00;101253.09;5077773;28;20043;-39
2024/01/14 07:24:38;;;;;;;42.72;26.77;;;;;;;0.31;100.00;101259.97;5076922;28;20512;-39
2024/01/14 07:27:04;;;;;;;42.58;26.67;;;;;;;0.27;100.00;101253.28;5076922;28;20054;-39
2024/01/14 07:29:29;;;;;;;42.33;28.00;;;;;;;0.30;100.00;101265.44;5076971;28;20035;-39
2024/01/14 07:31:55;;;;;;;40.33;26.40;;;;;;;0.28;100.00;101262.09;5076776;28;20060;-39
2024/01/14 07:34:21;;;;;;;42.50;25.88;;;;;;;0.17;100.00;101241.88;5076523;28;20316;-39
2024/01/14 07:36:46;;;;;;;50.47;29.23;;;;;;;0.27;100.00;101263.91;5076941;28;20032;-39
2024/01/14 07:39:12;;;;;;;47.38;28.17;;;;;;;0.19;100.00;101251.38;5076822;28;20032;-39
2024/01/14 07:41:38;;;;;;;48.10;28.30;;;;;;;0.29;100.00;101264.59;5076695;28;20107;-39
2024/01/14 07:44:05;;;;;;;46.20;27.48;;;;;;;0.30;100.00;101262.78;5076534;28;20040;-39
2024/01/14 07:46:30;;;;;;;;;;;;;;;0.33;100.00;101265.13;5077532;28;20385;-39
2024/01/14 07:48:55;;;;;;;44.07;26.60;;;;;;;0.29;100.00;101256.59;5076473;28;19908;-39
2024/01/14 07:51:20;;;;;;;46.00;28.53;;;;;;;0.26;100.00;101254.25;5077092;28;20385;-39
2024/01/14 07:53:46;;;;;;;46.37;28.00;;;;;;;0.28;100.00;101262.09;5076424;28;20028;-39
2024/01/14 07:56:11;;;;;;;44.80;28.53;;;;;;;0.23;100.00;101255.41;5076599;28;20052;-39
2024/01/14 07:58:37;;;;;;;46.07;27.97;;;;;;;0.18;100.00;101249.69;5076517;28;20112;-39
2024/01/14 08:01:02;;;;;;;43.00;27.42;;;;;;;0.21;100.00;101253.91;5077041;28;20026;-39
2024/01/14 08:03:28;;;;;;;51.47;29.43;;;;;;;0.13;100.00;101241.34;5076532;28;20399;-39
2024/01/14 08:05:54;;;;;;;48.13;28.23;;;;;;;0.25;100.00;101256.09;5076699;28;20274;-39
2024/01/14 08:08:20;;;;;;;46.28;29.10;;;;;;;0.22;100.00;101261.72;5075823;28;20031;-39
2024/01/14 08:10:45;;;;;;;47.73;28.83;;;;;;;0.26;100.00;101270.22;5076140;28;20025;-39
2024/01/14 08:13:10;;;;;;;43.80;27.53;;;;;;;0.29;100.00;101266.41;5076162;28;20070;-39
2024/01/14 08:15:36;;;;;;;47.17;27.47;;;;;;;0.23;100.00;101251.91;5075924;28;20060;-39
2024/01/14 08:18:01;;;;;;;43.23;26.33;;;;;;;0.31;100.00;101265.28;5076611;28;20024;-39
2024/01/14 08:20:27;;;;;;;44.80;26.97;;;;;;;0.32;100.00;101266.94;5076408;28;20029;-39
2024/01/14 08:22:53;;;;;;;45.08;26.67;;;;;;;0.20;100.00;101238.94;5075942;28;20468;-39
2024/01/14 08:25:19;;;;;;;40.17;25.80;;;;;;;0.18;100.00;101233.75;5076307;28;20028;-39
2024/01/14 08:27:44;;;;;;;43.17;26.40;;;;;;;0.36;100.00;101264.81;5075853;28;20040;-39
2024/01/14 08:30:10;;;;;;;39.07;26.40;;;;;;;0.37;100.00;101267.31;5076308;28;20390;-39
2024/01/14 08:32:36;;;;;;;43.00;26.52;;;;;;;0.40;100.00;101260.88;5075814;28;20247;-39
2024/01/14 08:35:01;;;;;;;41.60;26.20;;;;;;;0.39;100.00;101257.38;5075645;28;20471;-39
2024/01/14 08:37:30;;;;;;;42.43;26.17;;;;;;;0.39;100.00;101252.06;5075674;28;20259;-39
2024/01/14 08:39:55;;;;;;;39.63;25.75;;;;;;;0.34;100.00;101235.72;5075505;28;20024;-39
2024/01/14 08:42:20;;;;;;;42.53;26.48;;;;;;;0.44;100.00;101249.75;5075253;28;20036;-39
2024/01/14 08:44:47;;;;;;;41.97;26.30;;;;;;;0.46;100.00;101246.94;5075230;28;20028;-39
2024/01/14 08:47:12;;;;;;;41.05;25.75;;;;;;;0.45;100.00;101240.78;5075678;28;20032;-39
2024/01/14 08:49:40;;;;;;;40.90;26.88;;;;;;;0.47;100.00;101243.28;5075366;28;20037;-39
2024/01/14 08:52:07;;;;;;;41.30;27.45;;;;;;;0.48;100.00;101234.28;5075640;28;20039;-39
2024/01/14 08:54:33;;;;;;;38.10;26.27;;;;;;;0.50;100.00;101233.16;5075750;28;20032;-39
2024/01/14 08:56:58;;;;;;;41.45;28.00;;;;;;;0.48;100.00;101232.47;5074734;28;20051;-39
2024/01/14 08:59:24;;;;;;;42.67;28.17;;;;;;;0.51;100.00;101234.81;5075774;28;20036;-39
2024/01/14 09:01:49;;;;;;;40.33;26.77;;;;;;;0.52;100.00;101235.66;5075969;28;20361;-39
2024/01/14 09:04:15;;;;;;;42.40;27.13;;;;;;;0.53;100.00;101237.31;5075021;28;20103;-39
2024/01/14 09:06:40;;;;;;;41.23;27.47;;;;;;;0.53;100.00;101242.66;5075358;28;20025;-39
2024/01/14 09:09:06;;;;;;;39.73;26.17;;;;;;;0.55;100.00;101237.19;5075046;28;20121;-39
2024/01/14 09:11:32;;;;;;;;;;;;;;;0.57;100.00;101238.69;5075441;28;20317;-39
2024/01/14 09:13:57;;;;;;;43.28;26.90;;;;;;;0.46;100.00;101231.81;5074637;28;19961;-39
2024/01/14 09:16:23;;;;;;;42.43;27.63;;;;;;;0.53;100.00;101240.00;5074992;28;20032;-39
2024/01/14 09:18:48;;;;;;;42.17;26.83;;;;;;;0.53;100.00;101229.34;5074542;28;20028;-39
2024/01/14 09:21:13;;;;;;;49.17;29.83;;;;;;;0.54;100.00;101232.84;5075133;28;20021;-39
2024/01/14 09:23:39;;;;;;;46.87;30.83;;;;;;;0.44;100.00;101216.97;5074641;28;20071;-39
2024/01/14 09:26:04;;;;;;;46.83;30.00;;;;;;;0.44;100.00;101212.50;5075232;28;20032;-39
2024/01/14 09:28:29;;;;;;;46.70;30.90;;;;;;;0.52;100.00;101225.84;5074630;28;20020;-39
2024/01/14 09:30:55;;;;;;;43.00;28.27;;;;;;;0.35;100.00;101192.16;5074883;28;20576;-39
2024/01/14 09:33:20;;;;;;;47.93;32.23;;;;;;;0.44;100.00;101212.50;5074465;28;20492;-39
2024/01/14 09:35:45;;;;;;;50.47;32.17;;;;;;;0.55;100.00;101221.22;5074423;28;20511;-39
2024/01/14 09:38:11;;;;;;;46.50;29.93;;;;;;;0.54;100.00;101212.41;5074074;28;20167;-39
2024/01/14 09:40:36;;;;;;;48.10;30.15;;;;;;;0.54;100.00;101220.41;5074069;28;20024;-39
2024/01/14 09:43:09;;;;;;;48.83;29.83;;;;;;;0.42;100.00;101182.53;5074333;28;20039;-39
2024/01/14 09:45:35;;;;;;;48.10;30.60;;;;;;;0.57;100.00;101205.94;5074555;28;20097;-39
2024/01/14 09:48:02;;;;;;;47.58;30.67;;;;;;;0.49;100.00;101198.75;5074563;28;20025;-39
2024/01/14 09:50:28;;;;;;;;;;;;;;;0.58;100.00;101208.41;5075144;28;20047;-39
2024/01/14 09:52:57;;;;;;;35.65;22.08;;;;;;;0.48;100.00;101194.38;5073891;28;19909;-39
2024/01/14 09:55:24;;;;;;;46.55;28.60;;;;;;;0.54;100.00;101199.09;5073818;28;20039;-39
2024/01/14 09:57:52;;;;;;;44.42;28.48;;;;;;;0.61;100.00;101202.78;5074586;28;20419;-39
2024/01/14 10:00:21;;;;;;;47.05;28.77;;;;;;;0.61;100.00;101194.81;5073948;28;20035;-39
2024/01/14 10:02:47;;;;;;;48.40;28.75;;;;;;;0.62;100.00;101198.31;5073914;28;20028;-39
2024/01/14 10:05:13;;;;;;;46.42;28.42;;;;;;;0.54;100.00;101176.94;5074407;28;20032;-39
2024/01/14 10:07:39;;;;;;;;;;;;;;;0.68;100.00;101189.69;5074611;28;20028;-39
2024/01/14 10:10:08;;;;;;;45.08;27.63;;;;;;;0.69;100.00;101180.72;5073776;28;19919;-39
2024/01/14 10:12:34;;;;;;;45.88;28.60;;;;;;;0.67;100.00;101178.19;5074588;28;20154;-39
2024/01/14 10:15:00;;;;;;;41.58;26.92;;;;;;;0.71;100.00;101176.91;5073678;28;20100;-39
2024/01/14 10:17:27;;;;;;;46.50;28.30;;;;;;;0.68;100.00;101171.03;5073658;28;20052;-39
2024/01/14 10:19:55;;;;;;;43.22;27.00;;;;;;;0.69;100.00;101168.25;5074392;28;20062;-39
2024/01/14 10:22:21;;;;;;;42.35;27.17;;;;;;;0.63;100.00;101160.88;5073932;28;20456;-39
2024/01/14 10:24:51;;;;;;;44.13;28.50;;;;;;;0.69;100.00;101162.09;5073539;28;20028;-39
2024/01/14 10:27:17;;;;;;;43.25;28.25;;;;;;;0.72;100.00;101153.78;5073326;28;20040;-39
2024/01/14 10:29:42;;;;;;;40.35;25.83;;;;;;;0.76;100.00;101153.28;5073235;28;20024;-39
2024/01/14 10:32:08;;;;;;;43.53;26.47;;;;;;;0.76;100.00;101155.13;5073558;28;20070;-39
2024/01/14 10:34:34;;;;;;;39.65;25.70;;;;;;;0.80;100.00;101145.00;5073759;28;20068;-39
2024/01/14 10:37:01;;;;;;;42.67;25.80;;;;;;;0.79;100.00;101146.00;5074077;28;20111;-39
2024/01/14 10:39:30;;;;;;;39.83;25.67;;;;;;;0.80;100.00;101150.31;5074192;28;20043;-39
2024/01/14 10:41:55;;;;;;;34.75;24.85;;;;;;;0.66;100.00;101122.47;5073731;28;20036;-39
2024/01/14 10:44:21;;;;;;;38.67;25.13;;;;;;;0.66;100.00;101120.63;5072982;28;20031;-39
2024/01/14 10:46:51;;;;;;;33.23;23.03;;;;;;;0.78;100.00;101142.47;5073915;28;20024;-39
2024/01/14 10:49:20;;;;;;;35.70;23.73;;;;;;;0.76;100.00;101136.50;5073176;28;20258;-39
2024/01/14 10:51:54;;;;;;;37.65;23.98;;;;;;;0.79;100.00;101130.84;5073150;28;20120;-39
2024/01/14 10:54:32;;;;;;;36.13;23.88;;;;;;;0.80;100.00;101129.84;5073752;28;20373;-39
2024/01/14 10:57:19;;;;;;;35.20;23.42;;;;;;;0.79;100.00;101127.38;5074002;28;20048;-39
2024/01/14 10:59:44;;;;;;;37.15;24.77;;;;;;;0.76;100.00;101113.34;5073569;28;20078;-39
2024/01/14 11:02:17;;;;;;;37.10;24.13;;;;;;;0.69;100.00;101106.19;5073205;28;20025;-39
2024/01/14 11:04:43;;;;;;;33.95;23.40;;;;;;;0.72;100.00;101105.84;5072891;28;20067;-39